createdAt,value
2018-07-09T00:00:11.833Z,17.90
2018-07-09T00:02:40.307Z,17.80
2018-07-09T00:05:08.975Z,17.80
2018-07-09T00:07:37.870Z,17.80
2018-07-09T00:10:06.379Z,17.80
2018-07-09T00:12:34.875Z,17.70
2018-07-09T00:15:03.366Z,17.60
2018-07-09T00:17:32.019Z,17.60
2018-07-09T00:20:00.566Z,17.60
2018-07-09T00:22:29.067Z,17.50
2018-07-09T00:24:57.651Z,17.50
2018-07-09T00:27:26.241Z,17.40
2018-07-09T00:29:54.793Z,17.40
2018-07-09T00:37:19.633Z,17.30
2018-07-09T00:39:48.154Z,17.30
2018-07-09T00:42:16.926Z,17.30
2018-07-09T00:44:45.489Z,17.20
2018-07-09T00:47:14.198Z,17.10
2018-07-09T00:49:43.063Z,17.10
2018-07-09T00:54:39.717Z,17.10
2018-07-09T00:57:08.351Z,17.10
2018-07-09T00:59:36.843Z,17.00
2018-07-09T01:02:05.337Z,17.00
2018-07-09T01:04:33.889Z,16.90
2018-07-09T01:07:02.559Z,16.90
2018-07-09T01:09:31.114Z,16.90
2018-07-09T01:12:12.920Z,16.70
2018-07-09T01:14:42.127Z,16.70
2018-07-09T01:17:10.625Z,16.70
2018-07-09T01:19:39.087Z,16.70
2018-07-09T01:22:07.582Z,16.60
2018-07-09T01:24:36.145Z,16.60
2018-07-09T01:27:04.755Z,16.50
2018-07-09T01:29:33.451Z,16.50
2018-07-09T01:32:02.016Z,16.50
2018-07-09T01:34:30.443Z,16.50
2018-07-09T01:36:59.001Z,16.40
2018-07-09T01:39:27.583Z,16.30
2018-07-09T01:41:56.029Z,16.30
2018-07-09T01:44:24.509Z,16.30
2018-07-09T01:46:53.199Z,16.30
2018-07-09T01:49:22.009Z,16.30
2018-07-09T01:51:50.469Z,16.20
2018-07-09T01:54:18.985Z,16.20
2018-07-09T01:56:47.435Z,16.20
2018-07-09T01:59:15.931Z,16.20
2018-07-09T02:01:44.372Z,16.20
2018-07-09T02:04:12.794Z,16.20
2018-07-09T02:06:41.481Z,16.10
2018-07-09T02:09:10.093Z,16.00
2018-07-09T02:11:39.154Z,16.00
2018-07-09T02:14:08.065Z,16.00
2018-07-09T02:16:36.517Z,16.00
2018-07-09T02:21:33.251Z,16.00
2018-07-09T02:24:01.771Z,15.90
2018-07-09T02:26:30.489Z,15.90
2018-07-09T02:28:59.045Z,15.90
2018-07-09T02:31:27.509Z,15.90
2018-07-09T02:33:56.001Z,15.80
2018-07-09T02:36:24.625Z,15.80
2018-07-09T02:38:53.226Z,15.80
2018-07-09T02:41:21.748Z,15.80
2018-07-09T02:43:50.226Z,15.70
2018-07-09T02:46:18.801Z,15.70
2018-07-09T02:48:47.334Z,15.70
2018-07-09T02:51:15.819Z,15.70
2018-07-09T02:53:44.361Z,15.60
2018-07-09T02:56:12.959Z,15.60
2018-07-09T02:58:42.472Z,15.60
2018-07-09T03:01:11.070Z,15.60
2018-07-09T03:03:39.491Z,15.60
2018-07-09T03:06:09.516Z,15.60
2018-07-09T03:08:38.009Z,15.50
2018-07-09T03:11:07.241Z,15.50
2018-07-09T03:13:35.724Z,15.50
2018-07-09T03:16:04.315Z,15.50
2018-07-09T03:18:32.799Z,15.50
2018-07-09T03:21:01.254Z,15.40
2018-07-09T03:23:29.714Z,15.40
2018-07-09T03:25:58.167Z,15.30
2018-07-09T03:28:26.609Z,15.30
2018-07-09T03:30:55.051Z,15.30
2018-07-09T03:33:23.477Z,15.30
2018-07-09T03:38:20.234Z,15.20
2018-07-09T03:40:48.795Z,15.20
2018-07-09T03:43:17.252Z,15.20
2018-07-09T03:45:45.908Z,15.20
2018-07-09T03:48:14.356Z,15.10
2018-07-09T03:50:42.897Z,15.10
2018-07-09T03:53:11.333Z,15.10
2018-07-09T03:55:39.837Z,15.10
2018-07-09T03:58:08.424Z,15.00
2018-07-09T04:00:36.874Z,15.00
2018-07-09T04:05:33.866Z,15.10
2018-07-09T04:08:02.289Z,15.10
2018-07-09T04:10:30.835Z,15.20
2018-07-09T04:12:59.519Z,15.20
2018-07-09T04:15:27.968Z,15.20
2018-07-09T04:17:56.441Z,15.20
2018-07-09T04:20:24.887Z,15.20
2018-07-09T04:22:53.316Z,15.30
2018-07-09T04:25:21.986Z,15.30
2018-07-09T04:27:50.447Z,15.30
2018-07-09T04:30:19.151Z,15.30
2018-07-09T04:32:47.801Z,15.30
2018-07-09T04:35:16.330Z,15.30
2018-07-09T04:37:44.825Z,15.40
2018-07-09T04:40:13.398Z,15.40
2018-07-09T04:45:10.052Z,15.50
2018-07-09T04:47:38.759Z,15.50
2018-07-09T04:50:07.297Z,15.60
2018-07-09T04:52:35.826Z,15.60
2018-07-09T04:55:04.382Z,15.70
2018-07-09T04:57:32.914Z,15.70
2018-07-09T05:00:01.368Z,15.80
2018-07-09T05:02:29.825Z,15.80
2018-07-09T05:04:59.522Z,15.80
2018-07-09T05:07:28.077Z,15.90
2018-07-09T05:09:56.656Z,16.00
2018-07-09T05:12:25.138Z,16.00
2018-07-09T05:14:53.600Z,16.10
2018-07-09T05:17:22.157Z,16.10
2018-07-09T05:19:50.640Z,16.10
2018-07-09T05:22:19.136Z,16.10
2018-07-09T05:24:47.587Z,16.10
2018-07-09T05:27:16.050Z,16.10
2018-07-09T05:29:45.336Z,16.00
2018-07-09T05:32:13.843Z,16.00
2018-07-09T05:34:42.313Z,16.00
2018-07-09T05:37:10.778Z,15.90
2018-07-09T05:39:39.767Z,15.90
2018-07-09T05:42:08.377Z,16.00
2018-07-09T05:44:37.885Z,16.20
2018-07-09T05:47:06.731Z,16.30
2018-07-09T05:49:35.475Z,16.40
2018-07-09T05:52:04.003Z,16.50
2018-07-09T05:54:32.594Z,16.70
2018-07-09T05:57:01.186Z,16.80
2018-07-09T05:59:29.704Z,16.90
2018-07-09T06:01:58.249Z,16.90
2018-07-09T06:04:26.881Z,16.90
2018-07-09T06:06:55.874Z,16.90
2018-07-09T06:09:24.360Z,17.00
2018-07-09T06:11:52.859Z,17.10
2018-07-09T06:14:21.319Z,17.20
2018-07-09T06:16:49.792Z,17.30
2018-07-09T06:19:18.324Z,17.40
2018-07-09T06:21:46.819Z,17.50
2018-07-09T06:24:15.362Z,17.70
2018-07-09T06:26:43.892Z,17.80
2018-07-09T06:29:12.364Z,17.90
2018-07-09T06:31:40.925Z,18.10
2018-07-09T06:34:09.443Z,18.30
2018-07-09T06:36:38.111Z,18.30
2018-07-09T06:39:07.340Z,18.30
2018-07-09T06:41:36.073Z,18.60
2018-07-09T06:44:04.514Z,18.70
2018-07-09T06:46:33.086Z,18.80
2018-07-09T06:49:01.680Z,18.90
2018-07-09T06:51:30.130Z,18.90
2018-07-09T06:53:58.596Z,18.90
2018-07-09T06:56:27.099Z,18.80
2018-07-09T06:58:55.598Z,18.80
2018-07-09T07:01:24.070Z,18.80
2018-07-09T07:06:20.746Z,18.70
2018-07-09T07:08:50.250Z,18.80
2018-07-09T07:11:18.817Z,18.90
2018-07-09T07:13:47.389Z,18.90
2018-07-09T07:16:15.910Z,19.00
2018-07-09T07:18:44.512Z,19.10
2018-07-09T07:21:13.172Z,19.10
2018-07-09T07:23:41.742Z,19.10
2018-07-09T07:26:10.385Z,19.10
2018-07-09T07:28:38.956Z,19.10
2018-07-09T07:31:07.602Z,19.10
2018-07-09T07:33:36.089Z,19.10
2018-07-09T07:36:04.630Z,19.20
2018-07-09T07:38:33.130Z,19.20
2018-07-09T07:41:01.630Z,19.30
2018-07-09T07:43:30.142Z,19.50
2018-07-09T07:45:58.658Z,19.60
2018-07-09T07:48:27.139Z,19.70
2018-07-09T07:50:55.610Z,19.70
2018-07-09T07:53:24.139Z,19.80
2018-07-09T07:58:20.894Z,20.20
2018-07-09T08:00:49.480Z,20.30
2018-07-09T08:03:18.606Z,20.40
2018-07-09T08:05:47.166Z,20.40
2018-07-09T08:08:15.697Z,20.70
2018-07-09T08:10:44.206Z,20.90
2018-07-09T08:15:41.225Z,21.30
2018-07-09T08:20:37.899Z,21.50
2018-07-09T08:23:06.401Z,21.70
2018-07-09T08:25:34.993Z,21.90
2018-07-09T08:28:03.615Z,22.10
2018-07-09T08:30:32.103Z,22.20
2018-07-09T08:33:00.675Z,22.60
2018-07-09T08:35:29.284Z,22.80
2018-07-09T08:37:57.770Z,22.40
2018-07-09T08:40:26.250Z,22.30
2018-07-09T08:42:54.899Z,22.70
2018-07-09T08:45:23.516Z,22.70
2018-07-09T08:47:52.072Z,22.80
2018-07-09T08:52:49.147Z,23.70
2018-07-09T08:55:17.845Z,24.10
2018-07-09T09:00:15.019Z,24.70
2018-07-09T09:02:43.486Z,25.30
2018-07-09T09:05:12.025Z,25.70
2018-07-09T09:07:40.538Z,25.20
2018-07-09T09:10:09.161Z,24.40
2018-07-09T09:12:37.536Z,24.20
2018-07-09T09:15:06.067Z,24.20
2018-07-09T09:17:34.549Z,24.60
2018-07-09T09:22:31.296Z,25.40
2018-07-09T09:24:59.898Z,25.00
2018-07-09T09:27:28.394Z,24.40
2018-07-09T09:29:56.991Z,24.10
2018-07-09T09:32:25.573Z,23.80
2018-07-09T09:34:54.016Z,23.80
2018-07-09T09:37:22.575Z,23.80
2018-07-09T09:39:51.211Z,24.20
2018-07-09T09:42:19.800Z,24.50
2018-07-09T09:44:48.334Z,25.00
2018-07-09T09:47:16.890Z,25.10
2018-07-09T09:49:45.510Z,25.60
2018-07-09T09:52:14.144Z,26.10
2018-07-09T09:54:42.722Z,25.90
2018-07-09T09:59:39.383Z,25.70
2018-07-09T10:02:07.972Z,26.10
2018-07-09T10:04:37.365Z,26.30
2018-07-09T10:07:05.857Z,26.00
2018-07-09T10:09:34.383Z,25.60
2018-07-09T10:12:02.814Z,25.70
2018-07-09T10:14:31.278Z,26.40
2018-07-09T10:16:59.801Z,26.80
2018-07-09T10:19:28.229Z,26.90
2018-07-09T10:21:56.746Z,26.30
2018-07-09T10:24:25.342Z,25.80
2018-07-09T10:26:53.827Z,25.90
2018-07-09T10:29:22.328Z,25.80
2018-07-09T10:31:50.937Z,25.60
2018-07-09T10:34:19.387Z,25.50
2018-07-09T10:36:48.258Z,25.40
2018-07-09T10:39:18.166Z,25.20
2018-07-09T10:41:46.749Z,25.10
2018-07-09T10:44:15.243Z,24.90
2018-07-09T10:46:43.756Z,25.00
2018-07-09T10:49:12.340Z,25.10
2018-07-09T10:51:40.997Z,25.40
2018-07-09T10:54:09.633Z,25.40
2018-07-09T10:56:38.181Z,25.30
2018-07-09T10:59:06.665Z,25.50
2018-07-09T11:01:35.252Z,25.70
2018-07-09T11:04:04.039Z,25.70
2018-07-09T11:06:32.572Z,25.80
2018-07-09T11:09:01.101Z,25.90
2018-07-09T11:11:29.688Z,25.40
2018-07-09T11:13:58.170Z,25.20
2018-07-09T11:16:26.754Z,25.20
2018-07-09T11:18:55.196Z,25.20
2018-07-09T11:21:23.798Z,25.40
2018-07-09T11:23:52.354Z,25.60
2018-07-09T11:26:20.813Z,25.90
2018-07-09T11:28:49.341Z,26.00
2018-07-09T11:31:17.930Z,26.30
2018-07-09T11:33:46.421Z,26.20
2018-07-09T11:36:14.933Z,26.10
2018-07-09T11:38:43.381Z,26.00
2018-07-09T11:43:40.175Z,25.50
2018-07-09T11:46:08.865Z,25.60
2018-07-09T11:48:37.394Z,25.60
2018-07-09T11:51:06.037Z,25.60
2018-07-09T11:53:34.815Z,25.70
2018-07-09T11:56:03.281Z,25.70
2018-07-09T11:58:31.763Z,25.60
2018-07-09T12:01:00.284Z,25.70
2018-07-09T12:03:28.781Z,25.90
2018-07-09T12:05:57.378Z,26.00
2018-07-09T12:08:26.105Z,25.80
2018-07-09T12:10:54.699Z,25.90
2018-07-09T12:13:23.253Z,26.00
2018-07-09T12:15:51.865Z,25.90
2018-07-09T12:18:20.373Z,25.70
2018-07-09T12:20:48.923Z,26.00
2018-07-09T12:23:17.597Z,26.20
2018-07-09T12:25:46.096Z,26.20
2018-07-09T12:28:14.705Z,26.40
2018-07-09T12:30:43.262Z,26.20
2018-07-09T12:33:11.714Z,26.20
2018-07-09T12:35:40.223Z,26.10
2018-07-09T12:38:08.722Z,26.20
2018-07-09T12:40:37.205Z,26.30
2018-07-09T12:43:06.009Z,26.10
2018-07-09T12:45:34.473Z,26.10
2018-07-09T12:48:02.981Z,26.00
2018-07-09T12:50:31.425Z,26.00
2018-07-09T12:52:59.899Z,26.20
2018-07-09T12:55:28.371Z,26.10
2018-07-09T12:57:56.843Z,26.30
2018-07-09T13:00:25.471Z,26.50
2018-07-09T13:02:53.989Z,26.50
2018-07-09T13:05:22.591Z,26.30
2018-07-09T13:10:19.445Z,25.80
2018-07-09T13:12:47.967Z,26.00
2018-07-09T13:15:16.566Z,26.40
2018-07-09T13:17:45.121Z,26.60
2018-07-09T13:20:13.605Z,26.50
2018-07-09T13:22:42.224Z,26.50
2018-07-09T13:25:10.726Z,26.40
2018-07-09T13:27:39.216Z,26.30
2018-07-09T13:30:07.857Z,26.20
2018-07-09T13:32:36.662Z,26.60
2018-07-09T13:35:05.247Z,27.00
2018-07-09T13:37:33.872Z,26.90
2018-07-09T13:40:02.375Z,26.50
2018-07-09T13:44:59.167Z,25.90
2018-07-09T13:47:27.740Z,25.90
2018-07-09T13:49:56.310Z,25.70
2018-07-09T13:52:25.036Z,25.60
2018-07-09T13:54:53.924Z,25.50
2018-07-09T13:57:23.002Z,25.60
2018-07-09T13:59:51.552Z,25.80
2018-07-09T14:02:20.158Z,25.90
2018-07-09T14:07:16.827Z,25.40
2018-07-09T14:09:45.421Z,25.40
2018-07-09T14:12:13.962Z,25.40
2018-07-09T14:14:42.500Z,25.50
2018-07-09T14:17:10.986Z,25.70
2018-07-09T14:20:17.356Z,25.70
2018-07-09T14:22:45.978Z,25.70
2018-07-09T14:25:14.596Z,25.50
2018-07-09T14:27:43.207Z,25.40
2018-07-09T14:30:11.974Z,25.40
2018-07-09T14:32:40.960Z,25.50
2018-07-09T14:35:09.438Z,25.60
2018-07-09T14:37:37.918Z,25.50
2018-07-09T14:40:06.434Z,25.20
2018-07-09T14:42:35.229Z,25.10
2018-07-09T14:45:04.426Z,25.10
2018-07-09T14:47:33.119Z,25.00
2018-07-09T14:50:01.924Z,24.90
2018-07-09T14:52:30.781Z,24.90
2018-07-09T14:54:59.687Z,25.00
2018-07-09T14:57:28.321Z,25.00
2018-07-09T14:59:56.821Z,25.10
2018-07-09T15:04:53.735Z,25.10
2018-07-09T15:07:22.596Z,25.10
2018-07-09T15:09:51.293Z,25.10
2018-07-09T15:12:19.819Z,25.20
2018-07-09T15:14:48.321Z,25.20
2018-07-09T15:17:16.948Z,25.10
2018-07-09T15:19:45.577Z,25.10
2018-07-09T15:22:14.121Z,25.20
2018-07-09T15:24:42.771Z,25.20
2018-07-09T15:27:11.289Z,25.20
2018-07-09T15:29:39.987Z,25.20
2018-07-09T15:32:17.254Z,25.10
2018-07-09T15:34:45.760Z,24.80
2018-07-09T15:37:14.225Z,24.70
2018-07-09T15:39:42.708Z,24.80
2018-07-09T15:42:11.388Z,24.90
2018-07-09T15:44:39.877Z,24.90
2018-07-09T15:47:08.893Z,24.80
2018-07-09T15:49:37.669Z,24.70
2018-07-09T15:52:06.331Z,24.60
2018-07-09T15:54:34.913Z,24.80
2018-07-09T15:57:03.447Z,25.00
2018-07-09T15:59:31.984Z,24.90
2018-07-09T16:02:00.669Z,24.90
2018-07-09T16:04:29.266Z,24.90
2018-07-09T16:06:57.868Z,25.00
2018-07-09T16:09:26.525Z,25.10
2018-07-09T16:11:54.997Z,25.10
2018-07-09T16:14:23.788Z,25.10
2018-07-09T16:16:52.412Z,25.10
2018-07-09T16:19:20.970Z,25.00
2018-07-09T16:21:49.473Z,25.00
2018-07-09T16:24:18.143Z,25.10
2018-07-09T16:26:46.840Z,25.10
2018-07-09T16:29:15.443Z,25.10
2018-07-09T16:34:12.289Z,24.80
2018-07-09T16:36:40.956Z,24.80
2018-07-09T16:39:09.611Z,24.80
2018-07-09T16:41:38.464Z,24.90
2018-07-09T16:44:07.016Z,24.90
2018-07-09T16:49:04.873Z,25.20
2018-07-09T16:51:33.608Z,25.20
2018-07-09T16:54:02.215Z,25.10
2018-07-09T16:56:30.690Z,24.90
2018-07-09T16:58:59.260Z,24.90
2018-07-09T17:01:27.803Z,24.80
2018-07-09T17:03:56.394Z,24.80
2018-07-09T17:06:25.012Z,24.80
2018-07-09T17:08:53.603Z,24.70
2018-07-09T17:11:22.259Z,24.60
2018-07-09T17:16:18.980Z,24.60
2018-07-09T17:18:47.530Z,24.70
2018-07-09T17:21:16.005Z,24.60
2018-07-09T17:23:44.600Z,24.70
2018-07-09T17:26:13.099Z,24.50
2018-07-09T17:28:41.868Z,24.30
2018-07-09T17:31:10.346Z,24.30
2018-07-09T17:33:38.890Z,24.40
2018-07-09T17:36:07.569Z,24.40
2018-07-09T17:41:04.299Z,24.30
2018-07-09T17:43:33.009Z,24.40
2018-07-09T17:46:01.496Z,24.40
2018-07-09T17:48:29.989Z,24.40
2018-07-09T17:50:58.513Z,24.40
2018-07-09T17:53:27.258Z,24.20
2018-07-09T17:58:23.977Z,24.00
2018-07-09T18:00:52.491Z,23.90
2018-07-09T18:03:21.147Z,23.80
2018-07-09T18:05:49.625Z,23.70
2018-07-09T18:08:18.171Z,23.80
2018-07-09T18:15:43.828Z,23.70
2018-07-09T18:18:12.466Z,23.70
2018-07-09T18:20:40.990Z,23.60
2018-07-09T18:23:09.613Z,23.60
2018-07-09T18:25:38.141Z,23.60
2018-07-09T18:28:06.798Z,23.50
2018-07-09T18:30:35.461Z,23.40
2018-07-09T18:33:04.160Z,23.40
2018-07-09T18:35:32.877Z,23.30
2018-07-09T18:38:01.429Z,23.20
2018-07-09T18:40:29.929Z,23.20
2018-07-09T18:42:58.423Z,23.20
2018-07-09T18:45:26.915Z,23.20
2018-07-09T18:47:55.474Z,23.20
2018-07-09T18:50:24.045Z,23.10
2018-07-09T18:52:52.787Z,23.10
2018-07-09T18:55:21.283Z,23.10
2018-07-09T18:57:50.003Z,23.10
2018-07-09T19:00:18.522Z,23.10
2018-07-09T19:02:47.011Z,22.80
2018-07-09T19:07:43.899Z,22.70
2018-07-09T19:10:12.584Z,22.60
2018-07-09T19:12:41.214Z,22.60
2018-07-09T19:15:09.761Z,22.40
2018-07-09T19:18:01.826Z,22.20
2018-07-09T19:20:41.692Z,22.10
2018-07-09T19:23:09.724Z,22.10
2018-07-09T19:25:37.684Z,22.00
2018-07-09T19:28:06.486Z,22.00
2018-07-09T19:30:33.855Z,21.80
2018-07-09T19:33:01.310Z,21.80
2018-07-09T19:35:29.356Z,21.60
2018-07-09T19:37:56.975Z,21.50
2018-07-09T19:40:24.067Z,21.60
2018-07-09T19:42:51.416Z,21.60
2018-07-09T19:45:18.763Z,21.60
2018-07-09T19:47:46.124Z,21.60
2018-07-09T19:50:13.490Z,21.50
2018-07-09T19:52:40.840Z,21.40
2018-07-09T19:55:08.249Z,21.30
2018-07-09T19:57:35.612Z,21.40
2018-07-09T20:00:03.044Z,21.30
2018-07-09T20:02:30.398Z,21.10
2018-07-09T20:04:57.813Z,21.10
2018-07-09T20:07:25.142Z,21.10
2018-07-09T20:09:57.804Z,21.10
2018-07-09T20:12:30.572Z,21.10
2018-07-09T20:15:03.267Z,21.10
2018-07-09T20:17:35.008Z,21.00
2018-07-09T20:20:02.335Z,21.00
2018-07-09T20:24:57.279Z,20.80
2018-07-09T20:27:24.610Z,20.70
2018-07-09T20:32:19.666Z,20.60
2018-07-09T20:34:47.020Z,20.60
2018-07-09T20:37:14.417Z,20.60
2018-07-09T20:39:41.799Z,20.50
2018-07-09T20:42:09.150Z,20.50
2018-07-09T20:44:36.535Z,20.40
2018-07-09T20:47:03.908Z,20.40
2018-07-09T20:49:31.264Z,20.40
2018-07-09T20:51:58.704Z,20.30
2018-07-09T20:54:26.054Z,20.30
2018-07-09T20:56:53.401Z,20.20
2018-07-09T20:59:20.875Z,20.20
2018-07-09T21:01:48.213Z,20.20
2018-07-09T21:04:20.975Z,20.10
2018-07-09T21:06:48.295Z,20.10
2018-07-09T21:09:15.933Z,20.00
2018-07-09T21:11:43.298Z,19.90
2018-07-09T21:14:10.658Z,19.80
2018-07-09T21:16:38.011Z,19.60
2018-07-09T21:19:05.455Z,19.60
2018-07-09T21:21:32.811Z,19.50
2018-07-09T21:24:00.145Z,19.40
2018-07-09T21:26:27.537Z,19.20
2018-07-09T21:28:55.020Z,19.20
2018-07-09T21:31:22.441Z,19.10
2018-07-09T21:33:49.799Z,19.10
2018-07-09T21:36:17.233Z,19.10
2018-07-09T21:38:44.713Z,19.00
2018-07-09T21:41:12.663Z,19.00
2018-07-09T21:43:40.148Z,19.00
2018-07-09T21:46:07.477Z,18.90
2018-07-09T21:48:35.302Z,18.90
2018-07-09T21:51:02.605Z,18.90
2018-07-09T21:53:30.073Z,19.00
2018-07-09T21:55:57.416Z,18.90
2018-07-09T21:58:24.889Z,18.80
2018-07-09T22:00:52.257Z,18.80
2018-07-09T22:03:19.585Z,18.80
2018-07-09T22:05:47.043Z,18.80
2018-07-09T22:08:14.397Z,18.60
2018-07-09T22:10:41.729Z,18.60
2018-07-09T22:13:09.089Z,18.60
2018-07-09T22:15:36.486Z,18.50
2018-07-09T22:18:04.046Z,18.40
2018-07-09T22:20:31.483Z,18.40
2018-07-09T22:22:58.812Z,18.40
2018-07-09T22:25:26.158Z,18.20
2018-07-09T22:27:53.494Z,18.20
2018-07-09T22:30:29.637Z,18.30
2018-07-09T22:32:58.497Z,18.20
2018-07-09T22:35:27.206Z,18.20
2018-07-09T22:37:55.822Z,18.10
2018-07-09T22:40:24.250Z,18.10
2018-07-09T22:42:52.742Z,17.90
2018-07-09T22:45:21.206Z,18.00
2018-07-09T22:50:17.888Z,17.90
2018-07-09T22:52:46.382Z,17.70
2018-07-09T22:55:26.117Z,17.70
2018-07-09T22:57:54.587Z,17.80
2018-07-09T23:00:23.056Z,17.80
2018-07-09T23:05:25.228Z,17.70
2018-07-09T23:07:53.720Z,17.70
2018-07-09T23:10:34.216Z,17.60
2018-07-09T23:13:24.408Z,17.60
2018-07-09T23:16:04.287Z,17.60
2018-07-09T23:19:12.492Z,17.50
2018-07-09T23:21:52.302Z,17.40
2018-07-09T23:24:19.666Z,17.30
2018-07-09T23:26:47.016Z,17.30
2018-07-09T23:29:14.384Z,17.30
2018-07-09T23:31:41.706Z,17.20
2018-07-09T23:34:09.102Z,17.20
2018-07-09T23:36:36.866Z,17.20
2018-07-09T23:39:05.644Z,17.20
2018-07-09T23:41:32.976Z,17.10
2018-07-09T23:44:00.317Z,16.90
2018-07-09T23:46:27.906Z,16.90
2018-07-09T23:48:55.375Z,16.80
2018-07-09T23:51:23.253Z,16.70
2018-07-09T23:53:50.610Z,16.80
2018-07-09T23:59:11.696Z,16.80
